< < Back
Terminal Aerodrome Forecast


Current Version              Previous Versions:   1  2  3  4  5  6  7  8  9  

Terminal Aerodrome Forecast

814
FTUS42 KJAX 301259 AAB
TAFSSI
TAF AMD
KSSI 301259Z 3013/0112 13008KT P6SM SCT015 SCT250
     FM301700 12012G16KT P6SM SCT040 SCT250
     FM010300 14008KT P6SM SCT040 SCT250=

Latest METAR

694
SAUS70 KWBC 301500 RRG
MTRSSI
METAR KSSI 301453Z AUTO 10SM CLR 26/23 A3001 RMK AO2 SLP164 T02560228
51007


USA.gov is the U.S. government's official web portal to all federal, state and local government web resources and services.